createdAt,value
2022-08-02T00:00:44.302Z,97.50
2022-08-02T00:03:13.646Z,97.30
2022-08-02T00:05:42.794Z,97.10
2022-08-02T00:08:20.462Z,97.10
2022-08-02T00:10:47.403Z,96.90
2022-08-02T00:13:16.599Z,96.00
2022-08-02T00:15:43.997Z,95.50
2022-08-02T00:18:10.774Z,95.10
2022-08-02T00:20:39.760Z,93.80
2022-08-02T00:23:06.652Z,92.70
2022-08-02T00:25:33.459Z,92.60
2022-08-02T00:28:00.292Z,91.40
2022-08-02T00:30:27.072Z,90.70
2022-08-02T00:32:53.844Z,90.60
2022-08-02T00:35:22.838Z,91.00
2022-08-02T00:37:49.790Z,91.10
2022-08-02T00:40:24.434Z,91.10
2022-08-02T00:43:09.246Z,90.50
2022-08-02T00:46:02.943Z,90.40
2022-08-02T00:48:25.877Z,90.10
2022-08-02T00:50:52.739Z,90.20
2022-08-02T00:53:19.651Z,90.30
2022-08-02T00:55:46.655Z,90.10
2022-08-02T00:58:13.464Z,90.00
2022-08-02T01:00:42.883Z,90.00
2022-08-02T01:03:09.737Z,89.70
2022-08-02T01:05:55.797Z,89.00
2022-08-02T01:08:29.594Z,88.90
2022-08-02T01:11:20.315Z,88.50
2022-08-02T01:13:59.475Z,87.90
2022-08-02T01:16:32.497Z,88.20
2022-08-02T01:19:35.698Z,86.00
2022-08-02T01:22:12.928Z,86.50
2022-08-02T01:24:57.266Z,86.00
2022-08-02T01:28:06.267Z,86.00
2022-08-02T01:30:35.221Z,85.90
2022-08-02T01:33:05.772Z,86.00
2022-08-02T01:35:50.974Z,84.60
2022-08-02T01:38:31.115Z,85.20
2022-08-02T01:41:00.019Z,85.60
2022-08-02T01:43:32.224Z,85.50
2022-08-02T01:46:01.672Z,85.00
2022-08-02T01:48:31.911Z,85.20
2022-08-02T01:51:03.782Z,85.90
2022-08-02T01:53:31.757Z,85.40
2022-08-02T01:56:00.326Z,84.80
2022-08-02T01:58:33.971Z,85.50
2022-08-02T02:01:06.858Z,85.00
2022-08-02T02:03:35.136Z,85.30
2022-08-02T02:06:10.408Z,85.00
2022-08-02T02:08:40.461Z,84.70
2022-08-02T02:12:06.569Z,84.20
2022-08-02T02:14:00.790Z,82.80
2022-08-02T02:16:29.070Z,82.60
2022-08-02T02:18:55.905Z,82.60
2022-08-02T02:21:22.956Z,82.10
2022-08-02T02:23:50.948Z,81.60
2022-08-02T02:26:31.117Z,81.00
2022-08-02T02:29:02.320Z,80.70
2022-08-02T02:31:35.180Z,79.50
2022-08-02T02:34:15.825Z,79.00
2022-08-02T02:36:48.861Z,78.30
2022-08-02T02:39:21.170Z,78.00
2022-08-02T02:41:49.425Z,77.50
2022-08-02T02:44:20.350Z,77.40
2022-08-02T02:46:49.557Z,77.10
2022-08-02T02:49:17.938Z,76.80
2022-08-02T02:51:45.598Z,77.00
2022-08-02T02:54:29.873Z,77.00
2022-08-02T02:57:02.533Z,76.60
2022-08-02T02:59:33.029Z,74.10
2022-08-02T03:02:00.300Z,73.90
2022-08-02T03:04:35.968Z,73.80
2022-08-02T03:07:20.683Z,71.00
2022-08-02T03:09:53.826Z,70.90
2022-08-02T03:12:25.892Z,70.80
2022-08-02T03:14:59.149Z,68.90
2022-08-02T03:17:26.097Z,68.60
2022-08-02T03:19:52.970Z,68.60
2022-08-02T03:22:19.775Z,69.40
2022-08-02T03:24:49.007Z,70.90
2022-08-02T03:27:15.785Z,71.80
2022-08-02T03:29:42.631Z,73.20
2022-08-02T03:32:14.615Z,73.80
2022-08-02T03:34:41.738Z,74.30
2022-08-02T03:37:10.427Z,75.30
2022-08-02T03:39:49.624Z,76.30
2022-08-02T03:42:24.977Z,76.80
2022-08-02T03:44:53.415Z,77.80
2022-08-02T03:47:21.179Z,79.10
2022-08-02T03:49:48.319Z,80.00
2022-08-02T03:52:16.074Z,80.80
2022-08-02T03:54:46.003Z,81.00
2022-08-02T03:57:13.744Z,81.60
2022-08-02T03:59:42.631Z,82.60
2022-08-02T04:02:15.031Z,82.60
2022-08-02T04:04:42.303Z,82.90
2022-08-02T04:07:11.809Z,82.60
2022-08-02T04:09:38.715Z,82.90
2022-08-02T04:12:05.973Z,82.20
2022-08-02T04:14:35.578Z,81.40
2022-08-02T04:17:09.586Z,81.70
2022-08-02T04:19:56.043Z,81.60
2022-08-02T04:22:32.700Z,82.00
2022-08-02T04:25:03.247Z,83.30
2022-08-02T04:28:15.360Z,83.40
2022-08-02T04:30:23.491Z,82.80
2022-08-02T04:32:50.996Z,81.90
2022-08-02T04:35:23.021Z,80.30
2022-08-02T04:38:09.563Z,79.80
2022-08-02T04:40:38.219Z,78.40
2022-08-02T04:43:05.082Z,76.40
2022-08-02T04:45:35.481Z,74.80
2022-08-02T04:48:04.928Z,73.60
2022-08-02T04:50:32.484Z,73.00
2022-08-02T04:52:59.324Z,72.10
2022-08-02T04:55:29.342Z,71.80
2022-08-02T04:57:59.383Z,71.30
2022-08-02T05:00:28.686Z,70.30
2022-08-02T05:02:57.277Z,69.80
2022-08-02T05:05:24.285Z,69.50
2022-08-02T05:07:51.236Z,69.50
2022-08-02T05:10:18.549Z,69.20
2022-08-02T05:12:45.546Z,69.70
2022-08-02T05:15:18.347Z,70.00
2022-08-02T05:17:49.227Z,69.40
2022-08-02T05:20:17.847Z,70.00
2022-08-02T05:22:44.895Z,70.20
2022-08-02T05:25:14.750Z,70.20
2022-08-02T05:27:42.877Z,70.00
2022-08-02T05:30:12.691Z,71.10
2022-08-02T05:32:50.493Z,72.00
2022-08-02T05:35:22.653Z,73.20
2022-08-02T05:37:50.546Z,74.20
2022-08-02T05:40:25.670Z,74.20
2022-08-02T05:42:55.725Z,74.60
2022-08-02T05:45:23.279Z,74.60
2022-08-02T05:47:50.218Z,74.80
2022-08-02T05:50:17.753Z,75.50
2022-08-02T05:52:56.783Z,75.00
2022-08-02T05:55:35.327Z,74.70
2022-08-02T05:58:21.056Z,74.60
2022-08-02T06:00:50.242Z,75.60
2022-08-02T06:04:03.067Z,75.60
2022-08-02T06:06:53.143Z,74.70
2022-08-02T06:09:27.191Z,74.60
2022-08-02T06:12:11.694Z,74.00
2022-08-02T06:14:40.447Z,73.60
2022-08-02T06:17:08.649Z,74.20
2022-08-02T06:19:52.397Z,73.60
2022-08-02T06:22:32.372Z,73.70
2022-08-02T06:25:48.090Z,71.50
2022-08-02T06:27:58.402Z,70.50
2022-08-02T06:30:25.630Z,70.00
2022-08-02T06:32:53.724Z,70.00
2022-08-02T06:35:23.380Z,70.60
2022-08-02T06:38:01.752Z,70.20
2022-08-02T06:40:43.558Z,69.90
2022-08-02T06:43:21.188Z,69.40
2022-08-02T06:45:48.186Z,69.30
2022-08-02T06:48:18.236Z,69.70
2022-08-02T06:50:48.756Z,69.60
2022-08-02T06:53:18.427Z,68.00
2022-08-02T06:55:45.607Z,67.60
2022-08-02T06:58:15.774Z,67.60
2022-08-02T07:00:43.596Z,67.00
2022-08-02T07:03:10.450Z,65.90
2022-08-02T07:05:37.650Z,66.00
2022-08-02T07:08:05.028Z,65.50
2022-08-02T07:10:34.171Z,65.30
2022-08-02T07:13:00.976Z,64.70
2022-08-02T07:15:27.822Z,64.50
2022-08-02T07:17:54.666Z,64.50
2022-08-02T07:20:21.498Z,64.60
2022-08-02T07:22:48.470Z,64.80
2022-08-02T07:25:15.648Z,65.30
2022-08-02T07:27:42.630Z,65.50
2022-08-02T07:30:10.094Z,65.40
2022-08-02T07:32:39.100Z,65.50
2022-08-02T07:35:08.945Z,65.30
2022-08-02T07:37:55.403Z,64.60
2022-08-02T07:40:31.016Z,64.60
2022-08-02T07:43:03.937Z,64.20
2022-08-02T07:45:35.535Z,63.00
2022-08-02T07:48:02.999Z,62.10
2022-08-02T07:50:30.002Z,62.20
2022-08-02T07:52:57.752Z,62.40
2022-08-02T07:55:39.918Z,62.60
2022-08-02T07:58:12.637Z,62.90
2022-08-02T08:00:42.053Z,62.20
2022-08-02T08:03:08.970Z,62.00
2022-08-02T08:05:39.404Z,61.30
2022-08-02T08:08:06.494Z,61.40
2022-08-02T08:10:59.248Z,60.90
2022-08-02T08:13:27.778Z,60.30
2022-08-02T08:15:54.679Z,59.80
2022-08-02T08:18:25.921Z,59.20
2022-08-02T08:20:53.948Z,58.60
2022-08-02T08:23:26.024Z,58.40
2022-08-02T08:25:55.008Z,58.00
2022-08-02T08:28:26.561Z,58.50
2022-08-02T08:30:53.372Z,58.40
2022-08-02T08:33:20.220Z,57.90
2022-08-02T08:35:47.077Z,58.20
2022-08-02T08:38:15.675Z,58.70
2022-08-02T08:40:45.212Z,58.10
2022-08-02T08:43:15.714Z,57.50
2022-08-02T08:45:55.868Z,57.30
2022-08-02T08:48:31.098Z,57.80
2022-08-02T08:51:10.304Z,57.90
2022-08-02T08:53:44.146Z,57.20
2022-08-02T08:56:16.898Z,56.80
2022-08-02T08:58:47.724Z,56.80
2022-08-02T09:01:17.458Z,56.80
2022-08-02T09:03:45.194Z,56.80
2022-08-02T09:06:12.326Z,56.00
2022-08-02T09:08:39.112Z,56.30
2022-08-02T09:11:16.384Z,56.20
2022-08-02T09:13:57.739Z,55.70
2022-08-02T09:16:36.827Z,55.70
2022-08-02T09:19:24.456Z,55.20
2022-08-02T09:22:08.633Z,55.10
2022-08-02T09:24:50.238Z,54.60
2022-08-02T09:27:22.927Z,54.00
2022-08-02T09:30:13.414Z,54.30
2022-08-02T09:32:49.821Z,54.20
2022-08-02T09:36:06.503Z,54.40
2022-08-02T09:38:27.523Z,52.70
2022-08-02T09:40:57.016Z,52.40
2022-08-02T09:43:51.854Z,51.80
2022-08-02T09:46:40.266Z,51.80
2022-08-02T09:49:13.275Z,51.80
2022-08-02T09:51:52.864Z,51.80
2022-08-02T09:54:29.629Z,51.70
2022-08-02T09:56:59.131Z,51.00
2022-08-02T09:59:27.299Z,50.30
2022-08-02T10:02:01.672Z,50.00
2022-08-02T10:04:34.470Z,49.90
2022-08-02T10:07:18.090Z,49.20
2022-08-02T10:09:47.776Z,49.10
2022-08-02T10:12:55.488Z,48.00
2022-08-02T10:15:27.078Z,47.00
2022-08-02T10:17:54.307Z,45.60
2022-08-02T10:20:22.283Z,44.60
2022-08-02T10:22:50.563Z,44.90
2022-08-02T10:25:18.720Z,44.60
2022-08-02T10:28:04.763Z,44.70
2022-08-02T10:30:33.416Z,44.40
2022-08-02T10:33:02.553Z,44.90
2022-08-02T10:35:32.430Z,45.10
2022-08-02T10:38:09.178Z,45.30
2022-08-02T10:40:49.998Z,44.90
2022-08-02T10:43:45.238Z,44.40
2022-08-02T10:46:32.580Z,44.50
2022-08-02T10:52:06.229Z,43.20
2022-08-02T10:54:58.121Z,43.00
2022-08-02T10:57:30.290Z,43.10
2022-08-02T11:00:29.344Z,43.10
2022-08-02T11:02:56.228Z,43.10
2022-08-02T11:05:42.659Z,43.00
2022-08-02T11:08:25.086Z,42.80
2022-08-02T11:11:10.715Z,43.40
2022-08-02T11:14:00.584Z,43.50
2022-08-02T11:16:55.886Z,43.60
2022-08-02T11:19:26.921Z,42.80
2022-08-02T11:22:22.428Z,43.20
2022-08-02T11:24:52.424Z,43.20
2022-08-02T11:27:21.737Z,42.90
2022-08-02T11:29:51.255Z,42.70
2022-08-02T11:32:31.187Z,42.80
2022-08-02T11:35:00.132Z,43.40
2022-08-02T11:37:30.177Z,43.60
2022-08-02T11:39:57.035Z,43.00
2022-08-02T11:42:38.338Z,42.30
2022-08-02T11:45:07.264Z,42.70
2022-08-02T11:47:49.521Z,41.80
2022-08-02T11:50:18.179Z,41.80
2022-08-02T11:52:47.407Z,41.20
2022-08-02T11:55:14.726Z,40.30
2022-08-02T11:58:03.160Z,40.40
2022-08-02T12:00:31.403Z,40.60
2022-08-02T12:02:58.288Z,40.00
2022-08-02T12:06:02.994Z,39.20
2022-08-02T12:08:19.090Z,38.80
2022-08-02T12:10:51.756Z,39.40
2022-08-02T12:13:27.739Z,38.60
2022-08-02T12:16:16.996Z,37.10
2022-08-02T12:19:07.865Z,38.10
2022-08-02T12:21:34.809Z,38.00
2022-08-02T12:24:04.002Z,37.80
2022-08-02T12:26:31.018Z,36.50
2022-08-02T12:28:59.508Z,34.90
2022-08-02T12:31:57.006Z,33.50
2022-08-02T12:34:29.953Z,32.10
2022-08-02T12:36:59.183Z,30.60
2022-08-02T12:39:39.805Z,27.60
2022-08-02T12:42:08.743Z,22.10
2022-08-02T12:44:38.367Z,16.60
2022-08-02T12:47:12.401Z,10.40
2022-08-02T12:49:40.787Z,6.70
2022-08-02T12:52:29.023Z,3.70
2022-08-02T12:54:55.964Z,2.10
2022-08-02T12:57:25.309Z,1.00
2022-08-02T12:59:56.041Z,1.00
2022-08-02T13:02:25.719Z,1.00
2022-08-02T13:04:52.524Z,1.00
2022-08-02T13:07:19.613Z,1.00
2022-08-02T13:09:48.175Z,1.00
2022-08-02T13:12:15.868Z,1.00
2022-08-02T13:14:45.590Z,1.00
2022-08-02T13:17:14.642Z,1.00
2022-08-02T13:19:43.948Z,1.00
2022-08-02T13:22:10.969Z,1.00
2022-08-02T13:24:55.271Z,1.00
2022-08-02T13:27:25.052Z,1.00
2022-08-02T13:29:52.538Z,1.00
2022-08-02T13:32:19.782Z,1.00
2022-08-02T13:34:47.237Z,1.00
2022-08-02T13:37:14.791Z,1.00
2022-08-02T13:39:41.634Z,1.00
2022-08-02T13:42:08.589Z,1.00
2022-08-02T13:44:43.753Z,1.00
2022-08-02T13:47:11.539Z,1.00
2022-08-02T13:49:50.879Z,1.00
2022-08-02T13:52:18.904Z,1.00
2022-08-02T13:54:45.730Z,1.00
2022-08-02T13:57:12.534Z,1.00
2022-08-02T13:59:57.262Z,1.00
2022-08-02T14:02:29.099Z,1.00
2022-08-02T14:04:58.218Z,1.00
2022-08-02T14:07:27.492Z,1.00
2022-08-02T14:10:05.209Z,1.00
2022-08-02T14:12:36.580Z,1.00
2022-08-02T14:15:05.984Z,1.00
2022-08-02T14:17:35.736Z,1.00
2022-08-02T14:20:02.536Z,1.00
2022-08-02T14:22:30.183Z,1.00
2022-08-02T14:24:59.752Z,1.00
2022-08-02T14:27:39.587Z,1.00
2022-08-02T14:30:07.786Z,1.00
2022-08-02T14:32:34.563Z,1.00
2022-08-02T14:35:01.430Z,1.00
2022-08-02T14:37:28.466Z,1.00
2022-08-02T14:39:59.644Z,1.00
2022-08-02T14:42:27.853Z,1.00
2022-08-02T14:44:54.743Z,2.60
2022-08-02T14:47:21.565Z,4.30
2022-08-02T14:49:50.273Z,5.80
2022-08-02T14:52:17.848Z,6.10
2022-08-02T14:54:44.807Z,6.30
2022-08-02T14:57:13.927Z,7.10
2022-08-02T14:59:42.419Z,8.10
2022-08-02T15:02:10.217Z,8.40
2022-08-02T15:04:42.660Z,8.20
2022-08-02T15:07:10.759Z,9.20
2022-08-02T15:09:39.825Z,10.00
2022-08-02T15:12:10.849Z,10.50
2022-08-02T15:14:39.458Z,10.80
2022-08-02T15:17:07.436Z,10.80
2022-08-02T15:19:56.375Z,10.90
2022-08-02T15:22:21.712Z,10.70
2022-08-02T15:24:48.805Z,10.90
2022-08-02T15:27:16.655Z,10.50
2022-08-02T15:29:45.399Z,10.70
2022-08-02T15:32:13.414Z,11.20
2022-08-02T15:34:40.627Z,11.60
2022-08-02T15:37:07.929Z,11.60
2022-08-02T15:39:34.838Z,12.80
2022-08-02T15:42:01.731Z,13.10
2022-08-02T15:44:28.668Z,13.60
2022-08-02T15:46:55.821Z,14.50
2022-08-02T15:49:25.670Z,15.50
2022-08-02T15:51:53.683Z,14.90
2022-08-02T15:54:23.149Z,15.40
2022-08-02T15:56:50.341Z,15.80
2022-08-02T15:59:19.538Z,15.60
2022-08-02T16:01:48.143Z,15.90
2022-08-02T16:04:15.972Z,16.70
2022-08-02T16:06:43.752Z,17.60
2022-08-02T16:09:10.975Z,17.70
2022-08-02T16:11:38.336Z,18.00
2022-08-02T16:14:05.551Z,18.40
2022-08-02T16:16:34.400Z,18.00
2022-08-02T16:22:00.757Z,18.70
2022-08-02T16:24:31.754Z,19.20
2022-08-02T16:27:01.097Z,19.30
2022-08-02T16:29:28.141Z,19.70
2022-08-02T16:32:00.624Z,20.10
2022-08-02T16:34:36.288Z,20.70
2022-08-02T16:37:14.597Z,21.10
2022-08-02T16:39:41.904Z,20.30
2022-08-02T16:42:11.330Z,20.60
2022-08-02T16:44:40.502Z,20.30
2022-08-02T16:47:43.566Z,20.50
2022-08-02T16:50:10.543Z,20.80
2022-08-02T16:52:39.580Z,20.40
2022-08-02T16:55:11.303Z,20.80
2022-08-02T16:57:43.545Z,20.70
2022-08-02T17:00:14.057Z,21.30
2022-08-02T17:02:42.760Z,20.70
2022-08-02T17:05:14.861Z,21.40
2022-08-02T17:08:15.494Z,22.30
2022-08-02T17:10:29.931Z,22.60
2022-08-02T17:12:57.498Z,23.50
2022-08-02T17:15:52.981Z,24.50
2022-08-02T17:18:14.208Z,25.20
2022-08-02T17:20:41.121Z,25.80
2022-08-02T17:23:08.860Z,26.20
2022-08-02T17:25:43.570Z,26.50
2022-08-02T17:28:19.662Z,26.60
2022-08-02T17:30:46.661Z,25.70
2022-08-02T17:33:13.919Z,25.80
2022-08-02T17:35:52.027Z,27.30
2022-08-02T17:38:26.286Z,27.00
2022-08-02T17:40:55.641Z,26.90
2022-08-02T17:43:27.070Z,27.00
2022-08-02T17:46:02.614Z,27.50
2022-08-02T17:48:49.610Z,27.30
2022-08-02T17:51:32.976Z,27.70
2022-08-02T17:54:06.666Z,28.30
2022-08-02T17:56:36.540Z,28.20
2022-08-02T17:59:20.941Z,28.10
2022-08-02T18:01:54.325Z,29.00
2022-08-02T18:04:27.625Z,29.00
2022-08-02T18:07:16.764Z,28.70
2022-08-02T18:09:50.459Z,31.80
2022-08-02T18:12:20.274Z,32.70
2022-08-02T18:14:52.071Z,34.20
2022-08-02T18:17:19.197Z,34.60
2022-08-02T18:19:55.452Z,35.50
2022-08-02T18:22:26.890Z,36.20
2022-08-02T18:24:56.620Z,34.40
2022-08-02T18:27:26.026Z,34.80
2022-08-02T18:30:00.288Z,35.00
2022-08-02T18:33:55.737Z,36.30
2022-08-02T18:35:19.018Z,36.20
2022-08-02T18:37:56.938Z,37.00
2022-08-02T18:40:27.929Z,38.00
2022-08-02T18:42:57.525Z,39.20
2022-08-02T18:45:25.257Z,40.20
2022-08-02T18:48:12.730Z,40.60
2022-08-02T18:50:50.583Z,41.10
2022-08-02T18:53:41.802Z,41.30
2022-08-02T18:56:19.237Z,42.30
2022-08-02T18:58:46.813Z,42.60
2022-08-02T19:01:14.772Z,42.90
2022-08-02T19:03:50.144Z,43.90
2022-08-02T19:06:19.641Z,44.30
2022-08-02T19:09:05.724Z,44.60
2022-08-02T19:11:40.921Z,44.80
2022-08-02T19:14:13.547Z,45.90
2022-08-02T19:16:48.747Z,46.30
2022-08-02T19:19:19.288Z,46.30
2022-08-02T19:22:18.296Z,47.00
2022-08-02T19:24:37.027Z,47.10
2022-08-02T19:27:13.209Z,48.00
2022-08-02T19:29:43.509Z,48.60
2022-08-02T19:32:40.430Z,49.50
2022-08-02T19:35:19.456Z,49.90
2022-08-02T19:40:43.140Z,49.70
2022-08-02T19:44:27.202Z,49.90
2022-08-02T19:46:05.246Z,50.00
2022-08-02T19:48:32.156Z,50.80
2022-08-02T19:51:02.133Z,51.30
2022-08-02T19:53:47.230Z,51.60
2022-08-02T19:56:25.295Z,52.00
2022-08-02T19:58:54.743Z,52.80
2022-08-02T20:01:37.524Z,53.60
2022-08-02T20:04:13.660Z,53.20
2022-08-02T20:06:45.436Z,53.20
2022-08-02T20:09:16.560Z,53.90
2022-08-02T20:11:45.417Z,54.30
2022-08-02T20:14:13.269Z,54.40
2022-08-02T20:16:40.391Z,54.80
2022-08-02T20:19:12.269Z,54.80
2022-08-02T20:21:43.539Z,55.20
2022-08-02T20:24:17.485Z,55.50
2022-08-02T20:26:47.578Z,55.40
2022-08-02T20:29:17.509Z,55.50
2022-08-02T20:32:03.887Z,55.50
2022-08-02T20:34:31.925Z,56.30
2022-08-02T20:37:00.598Z,56.10
2022-08-02T20:39:50.430Z,56.20
2022-08-02T20:42:23.345Z,55.70
2022-08-02T20:45:13.464Z,55.80
2022-08-02T20:47:42.517Z,55.80
2022-08-02T20:50:32.194Z,56.00
2022-08-02T20:53:04.028Z,55.70
2022-08-02T20:58:19.369Z,56.20
2022-08-02T21:00:47.047Z,56.90
2022-08-02T21:03:16.147Z,57.80
2022-08-02T21:05:55.184Z,57.90
2022-08-02T21:08:24.111Z,57.40
2022-08-02T21:10:52.118Z,57.20
2022-08-02T21:13:23.903Z,57.40
2022-08-02T21:15:52.144Z,58.30
2022-08-02T21:18:38.516Z,58.40
2022-08-02T21:21:09.310Z,58.10
2022-08-02T21:23:48.495Z,58.40
2022-08-02T21:26:30.440Z,58.90
2022-08-02T21:29:19.765Z,58.40
2022-08-02T21:31:51.185Z,58.40
2022-08-02T21:34:26.431Z,58.80
2022-08-02T21:36:56.184Z,58.50
2022-08-02T21:39:25.881Z,58.90
2022-08-02T21:41:55.627Z,59.10
2022-08-02T21:44:23.098Z,59.10
2022-08-02T21:46:56.573Z,59.30
2022-08-02T21:49:27.221Z,59.70
2022-08-02T21:52:08.671Z,59.70
2022-08-02T21:54:39.890Z,59.70
2022-08-02T21:57:07.807Z,60.20
2022-08-02T21:59:45.531Z,59.70
2022-08-02T22:02:13.308Z,59.80
2022-08-02T22:04:41.540Z,58.80
2022-08-02T22:07:25.032Z,58.50
2022-08-02T22:09:52.817Z,58.60
2022-08-02T22:12:20.538Z,58.00
2022-08-02T22:14:55.268Z,58.00
2022-08-02T22:17:50.680Z,57.90
2022-08-02T22:20:19.614Z,58.00
2022-08-02T22:22:52.500Z,58.00
2022-08-02T22:25:36.076Z,58.10
2022-08-02T22:28:38.685Z,57.90
2022-08-02T22:31:04.817Z,57.50
2022-08-02T22:34:01.270Z,57.70
2022-08-02T22:36:32.961Z,57.80
2022-08-02T22:39:01.423Z,57.40
2022-08-02T22:42:01.636Z,57.80
2022-08-02T22:44:18.818Z,57.00
2022-08-02T22:46:47.102Z,57.10
2022-08-02T22:49:38.738Z,57.20
2022-08-02T22:52:07.375Z,57.00
2022-08-02T22:54:37.294Z,57.60
2022-08-02T22:57:06.555Z,57.80
2022-08-02T22:58:52.549Z,49.40
2022-08-02T22:58:56.591Z,56.50
2022-08-02T22:59:39.659Z,57.90
2022-08-02T23:02:07.346Z,58.10
2022-08-02T23:04:38.239Z,58.50
2022-08-02T23:07:05.676Z,58.70
2022-08-02T23:09:35.533Z,58.70
2022-08-02T23:12:03.143Z,59.00
2022-08-02T23:14:30.170Z,59.30
2022-08-02T23:17:15.498Z,59.50
2022-08-02T23:19:51.367Z,59.70
2022-08-02T23:22:21.801Z,59.70
2022-08-02T23:24:57.051Z,59.70
2022-08-02T23:27:23.893Z,59.70
2022-08-02T23:29:52.930Z,59.90
2022-08-02T23:32:25.870Z,60.40
2022-08-02T23:34:53.913Z,60.50
2022-08-02T23:37:20.774Z,60.70
2022-08-02T23:39:48.090Z,60.80
2022-08-02T23:42:16.613Z,60.70
2022-08-02T23:44:43.531Z,60.60
2022-08-02T23:47:11.118Z,60.70
2022-08-02T23:49:41.091Z,60.70
2022-08-02T23:52:08.032Z,60.80
2022-08-02T23:54:34.926Z,61.00
2022-08-02T23:57:20.246Z,60.70
2022-08-02T23:59:48.927Z,60.20
